CDT,Max TemperatureF,Mean TemperatureF,Min TemperatureF,Max Dew PointF,MeanDew PointF,Min DewpointF,Max Humidity, Mean Humidity, Min Humidity, Max Sea Level PressureIn, Mean Sea Level PressureIn, Min Sea Level PressureIn, Max VisibilityMiles, Mean VisibilityMiles, Min VisibilityMiles, Max Wind SpeedMPH, Mean Wind SpeedMPH, Max Gust SpeedMPH,PrecipitationIn, CloudCover, Events, WindDirDegrees
2013-10-1,87,79,71,74,71,68,100,85,69,30.04,29.99,29.93,10,8,2,13,3,17,0.11,5,Rain,163
2013-10-2,90,79,67,72,68,65,100,73,46,30.07,30.02,29.94,10,4,0,12,3,17,0.02,1,Fog-Rain,135
2013-10-3,88,78,67,72,70,66,100,75,50,30.04,29.99,29.93,10,6,0,10,3,14,0.00,5,Fog,157
2013-10-4,88,79,70,73,71,70,100,79,57,30.03,29.98,29.94,10,8,1,12,4,15,0.00,5,,162
2013-10-5,89,79,69,74,71,68,100,81,61,30.01,29.97,29.88,10,8,1,14,3,20,0.43,5,Rain,180
2013-10-6,74,66,57,73,59,43,93,64,35,30.02,29.95,29.90,10,8,1,21,10,28,0.90,5,Rain-Thunderstorm,331
2013-10-7,77,64,50,54,50,47,93,66,38,30.11,30.07,30.03,10,10,10,15,5,20,0.00,0,,350
2013-10-8,78,65,51,55,51,49,93,67,41,30.14,30.09,30.04,10,10,10,13,4,16,0.00,0,,22
2013-10-9,82,65,48,58,52,48,100,68,36,30.14,30.07,30.05,10,4,0,8,1,10,0.00,0,Fog,24
2013-10-10,82,68,54,64,59,53,100,73,45,30.15,30.08,30.01,10,5,0,7,1,13,0.00,3,Fog,60
2013-10-11,84,69,53,66,58,53,100,74,48,30.06,30.00,29.96,10,4,0,13,2,17,0.00,1,Fog,190
2013-10-12,85,74,63,72,66,62,100,81,61,30.11,30.03,29.97,10,5,0,25,4,32,0.99,5,Fog-Rain-Thunderstorm,154
2013-10-13,82,74,65,70,67,64,100,84,67,30.23,30.16,30.10,10,6,0,14,6,20,0.00,4,Fog,40
2013-10-14,83,72,61,68,64,61,100,78,55,30.17,30.12,30.03,10,6,1,8,2,12,0.00,0,,58
2013-10-15,81,74,67,70,66,64,90,76,62,30.03,29.98,29.92,10,10,9,18,4,21,T,6,Rain,198
2013-10-16,68,64,60,66,63,58,93,90,87,30.01,29.98,29.93,10,6,2,17,6,20,0.41,8,Rain,12
2013-10-17,74,63,51,59,55,51,100,75,49,30.08,30.03,29.99,10,8,1,14,5,94,0.00,4,,343
2013-10-18,73,62,51,58,53,50,100,75,49,30.09,30.03,29.96,10,5,0,8,2,12,0.00,1,Fog,86
2013-10-19,67,55,43,57,51,45,100,78,56,30.11,30.07,29.97,10,7,0,17,5,22,0.00,3,Fog,347
2013-10-20,71,55,39,47,42,39,100,67,34,30.15,30.08,30.01,10,3,0,7,1,12,0.00,0,Fog,105
2013-10-21,74,59,43,58,50,41,100,75,49,30.08,30.03,29.97,10,9,2,9,1,12,0.00,1,,165
2013-10-22,73,63,52,55,52,47,93,67,41,30.09,30.04,30.00,10,9,2,15,6,20,0.00,3,,357
2013-10-23,74,61,48,51,47,43,93,63,33,30.17,30.12,30.05,10,10,8,12,4,17,0.01,0,,359
2013-10-24,79,62,45,54,49,43,93,68,42,30.33,30.19,30.09,10,10,10,15,6,21,0.00,0,,32
2013-10-25,63,53,42,43,37,33,89,62,34,30.50,30.41,30.33,10,10,5,17,8,23,0.00,0,,50
2013-10-26,74,57,40,55,46,38,96,67,37,30.33,30.23,30.13,10,9,2,8,1,12,0.00,1,,200
2013-10-27,73,62,51,63,55,48,100,81,61,30.13,30.09,30.03,10,6,0,12,4,15,0.03,4,Fog,98
2013-10-28,78,68,57,63,60,56,100,77,54,30.19,30.13,30.07,10,5,0,8,2,12,0.00,5,Fog,69
2013-10-29,81,69,56,66,60,55,100,73,45,30.22,30.18,30.12,10,5,0,12,4,17,0.00,2,Fog,147
2013-10-30,73,67,60,68,65,59,97,88,79,30.18,30.10,29.96,10,7,0,10,4,16,0.29,3,Fog-Rain,150
2013-10-31,73,67,60,70,67,60,100,94,87,29.96,29.80,29.72,10,7,0,18,8,24,4.38,6,Fog-Rain,187